createdAt,value
2023-01-30T00:00:56.825Z,100238.35
2023-01-30T00:03:32.380Z,100233.23
2023-01-30T00:06:00.480Z,100232.53
2023-01-30T00:08:36.308Z,100229.16
2023-01-30T00:11:15.603Z,100220.67
2023-01-30T00:13:51.330Z,100217.42
2023-01-30T00:16:29.054Z,100202.54
2023-01-30T00:19:05.843Z,100199.86
2023-01-30T00:21:41.351Z,100195.41
2023-01-30T00:24:09.273Z,100193.31
2023-01-30T00:26:45.240Z,100192.31
2023-01-30T00:29:29.844Z,100191.58
2023-01-30T00:32:08.889Z,100177.80
2023-01-30T00:35:23.038Z,100174.35
2023-01-30T00:38:12.702Z,100171.86
2023-01-30T00:40:57.528Z,100166.58
2023-01-30T00:43:57.312Z,100156.65
2023-01-30T00:46:52.262Z,100143.73
2023-01-30T00:49:25.922Z,100141.89
2023-01-30T00:54:54.859Z,100121.58
2023-01-30T00:57:22.351Z,100114.17
2023-01-30T01:00:00.363Z,100108.36
2023-01-30T01:02:31.155Z,100103.50
2023-01-30T01:04:59.223Z,100097.87
2023-01-30T01:07:31.954Z,100100.48
2023-01-30T01:10:03.646Z,100094.03
2023-01-30T01:12:31.202Z,100094.27
2023-01-30T01:15:01.933Z,100092.86
2023-01-30T01:17:32.977Z,100090.63
2023-01-30T01:20:32.703Z,100080.75
2023-01-30T01:23:00.483Z,100076.42
2023-01-30T01:25:27.678Z,100072.70
2023-01-30T01:27:56.791Z,100060.92
2023-01-30T01:30:27.366Z,100044.48
2023-01-30T01:33:17.422Z,100044.89
2023-01-30T01:35:52.332Z,100036.07
2023-01-30T01:38:25.545Z,100029.06
2023-01-30T01:44:09.463Z,100023.98
2023-01-30T01:46:49.222Z,100016.00
2023-01-30T01:49:32.188Z,99998.53
2023-01-30T01:52:16.687Z,99986.98
2023-01-30T01:55:25.956Z,99970.14
2023-01-30T01:58:25.441Z,99967.19
2023-01-30T02:01:12.359Z,99965.53
2023-01-30T02:03:46.665Z,99959.48
2023-01-30T02:06:32.886Z,99937.67
2023-01-30T02:09:09.481Z,99927.15
2023-01-30T02:12:06.942Z,99923.35
2023-01-30T02:14:58.970Z,99906.55
2023-01-30T02:17:37.798Z,99898.92
2023-01-30T02:21:10.707Z,99885.98
2023-01-30T02:24:20.405Z,99885.52
2023-01-30T02:27:26.820Z,99866.77
2023-01-30T02:31:07.056Z,99860.54
2023-01-30T02:34:20.032Z,99843.86
2023-01-30T02:37:25.346Z,99854.17
2023-01-30T02:40:40.113Z,99837.67
2023-01-30T02:44:04.197Z,99826.05
2023-01-30T02:47:21.815Z,99825.10
2023-01-30T02:50:33.140Z,99815.45
2023-01-30T02:53:06.621Z,99811.02
2023-01-30T02:55:46.998Z,99812.13
2023-01-30T02:58:42.282Z,99802.00
2023-01-30T03:02:08.185Z,99783.80
2023-01-30T03:05:04.405Z,99779.62
2023-01-30T03:08:12.269Z,99769.96
2023-01-30T03:11:06.204Z,99763.95
2023-01-30T03:14:19.970Z,99752.17
2023-01-30T03:20:08.090Z,99784.85
2023-01-30T03:22:59.564Z,99780.26
2023-01-30T03:25:37.733Z,99773.35
2023-01-30T03:28:13.008Z,99770.90
2023-01-30T03:31:18.972Z,99771.73
2023-01-30T03:37:01.676Z,99749.48
2023-01-30T03:39:29.372Z,99734.14
2023-01-30T03:49:06.732Z,99707.25
2023-01-30T03:51:47.979Z,99700.77
2023-01-30T03:54:28.580Z,99699.70
2023-01-30T03:57:19.172Z,99688.20
2023-01-30T03:59:52.333Z,99678.89
2023-01-30T04:02:28.583Z,99670.30
2023-01-30T04:05:09.255Z,99662.30
2023-01-30T04:07:37.746Z,99669.30
2023-01-30T04:13:03.207Z,99659.49
2023-01-30T04:15:42.169Z,99649.00
2023-01-30T04:18:47.885Z,99644.18
2023-01-30T04:21:51.782Z,99640.98
2023-01-30T04:24:38.907Z,99642.91
2023-01-30T04:30:50.346Z,99633.91
2023-01-30T04:34:04.571Z,99616.30
2023-01-30T04:36:35.800Z,99607.30
2023-01-30T04:39:28.862Z,99604.82
2023-01-30T04:46:00.976Z,99595.87
2023-01-30T04:55:13.178Z,99592.38
2023-01-30T05:04:48.099Z,99570.23
2023-01-30T05:11:01.284Z,99566.41
2023-01-30T05:13:57.381Z,99553.78
2023-01-30T05:16:52.650Z,99545.73
2023-01-30T05:19:54.312Z,99538.77
2023-01-30T05:22:51.372Z,99539.31
2023-01-30T05:25:39.165Z,99526.84
2023-01-30T05:31:43.420Z,99498.62
2023-01-30T05:34:54.644Z,99492.96
2023-01-30T05:41:06.339Z,99485.89
2023-01-30T05:44:06.094Z,99478.16
2023-01-30T05:53:41.280Z,99470.55
2023-01-30T05:56:50.481Z,99461.03
2023-01-30T06:03:23.547Z,99449.03
2023-01-30T06:15:53.086Z,99435.47
2023-01-30T06:18:24.361Z,99438.77
2023-01-30T06:21:04.803Z,99440.20
2023-01-30T06:23:54.805Z,99436.83
2023-01-30T06:30:00.179Z,99421.09
2023-01-30T06:35:51.181Z,99427.07
2023-01-30T06:38:23.303Z,99423.57
2023-01-30T06:41:20.605Z,99414.73
2023-01-30T06:44:11.859Z,99415.37
2023-01-30T06:46:49.230Z,99414.73
2023-01-30T06:49:26.864Z,99412.52
2023-01-30T06:52:05.047Z,99422.16
2023-01-30T06:58:17.414Z,99397.23
2023-01-30T07:00:53.079Z,99398.53
2023-01-30T07:03:21.647Z,99387.63
2023-01-30T07:09:13.395Z,99382.13
2023-01-30T07:11:47.372Z,99365.84
2023-01-30T07:14:14.558Z,99373.19
2023-01-30T07:16:49.931Z,99368.21
2023-01-30T07:19:22.420Z,99365.24
2023-01-30T07:22:09.243Z,99358.77
2023-01-30T07:24:39.786Z,99357.37
2023-01-30T07:27:11.745Z,99346.06
2023-01-30T07:36:58.193Z,99333.80
2023-01-30T07:39:40.918Z,99336.94
2023-01-30T07:42:14.200Z,99333.79
2023-01-30T07:48:26.260Z,99331.84
2023-01-30T07:57:08.030Z,99332.61
2023-01-30T07:59:55.052Z,99329.11
2023-01-30T08:02:38.971Z,99322.05
2023-01-30T08:05:25.114Z,99324.56
2023-01-30T08:29:43.265Z,99313.69
2023-01-30T08:32:11.139Z,99316.77
2023-01-30T08:51:25.732Z,99299.35
2023-01-30T09:06:17.223Z,99272.27
2023-01-30T09:09:06.457Z,99268.50
2023-01-30T09:15:23.885Z,99255.48
2023-01-30T09:18:19.925Z,99255.98
2023-01-30T09:21:15.410Z,99263.74
2023-01-30T09:23:46.722Z,99259.80
2023-01-30T09:26:15.506Z,99258.55
2023-01-30T09:28:42.661Z,99254.79
2023-01-30T09:31:10.204Z,99253.89
2023-01-30T09:33:37.943Z,99253.41
2023-01-30T09:36:05.514Z,99249.82
2023-01-30T09:38:32.834Z,99254.98
2023-01-30T09:41:00.005Z,99250.14
2023-01-30T09:43:38.295Z,99248.41
2023-01-30T09:46:11.288Z,99252.70
2023-01-30T09:48:59.397Z,99252.84
2023-01-30T09:51:39.908Z,99249.59
2023-01-30T09:54:36.172Z,99242.40
2023-01-30T09:57:24.535Z,99241.56
2023-01-30T10:00:32.065Z,99238.11
2023-01-30T10:03:08.550Z,99242.34
2023-01-30T10:05:44.854Z,99237.09
2023-01-30T10:08:24.477Z,99240.09
2023-01-30T10:14:36.249Z,99240.54
2023-01-30T10:17:34.114Z,99233.43
2023-01-30T13:10:41.724Z,99094.16
2023-01-30T13:17:34.807Z,99086.02
2023-01-30T13:21:10.068Z,99086.39
2023-01-30T13:24:27.175Z,99085.65
2023-01-30T13:27:21.301Z,99081.96
2023-01-30T13:29:51.926Z,99086.92
2023-01-30T13:33:01.187Z,99091.74
2023-01-30T13:35:43.313Z,99087.05
2023-01-30T13:38:20.956Z,99089.77
2023-01-30T13:40:57.076Z,99086.14
2023-01-30T13:44:22.233Z,99085.83
2023-01-30T13:47:20.697Z,99092.31
2023-01-30T13:50:24.197Z,99090.66
2023-01-30T13:53:32.917Z,99090.66
2023-01-30T13:57:10.079Z,99089.46
2023-01-30T14:00:04.644Z,99087.14
2023-01-30T14:03:24.071Z,99086.23
2023-01-30T14:05:51.589Z,99090.33
2023-01-30T14:08:27.434Z,99093.40
2023-01-30T14:10:57.150Z,99096.41
2023-01-30T14:13:26.178Z,99090.63
2023-01-30T14:15:57.284Z,99085.98
2023-01-30T14:18:50.652Z,99087.15
2023-01-30T14:21:29.476Z,99085.40
2023-01-30T14:24:04.646Z,99082.81
2023-01-30T14:27:23.023Z,99085.44
2023-01-30T14:29:54.920Z,99091.00
2023-01-30T14:32:22.152Z,99088.64
2023-01-30T14:35:16.805Z,99092.00
2023-01-30T14:37:53.199Z,99094.91
2023-01-30T14:40:23.242Z,99100.51
2023-01-30T14:43:14.329Z,99095.81
2023-01-30T14:45:51.082Z,99095.19
2023-01-30T14:48:41.351Z,99098.94
2023-01-30T14:51:21.084Z,99103.35
2023-01-30T14:53:53.728Z,99108.48
2023-01-30T14:56:40.665Z,99109.42
2023-01-30T14:59:29.896Z,99115.10
2023-01-30T15:02:12.055Z,99115.79
2023-01-30T15:04:56.234Z,99118.07
2023-01-30T15:07:28.324Z,99124.43
2023-01-30T15:10:03.647Z,99109.89
2023-01-30T15:12:46.426Z,99115.49
2023-01-30T15:15:56.284Z,99120.02
2023-01-30T15:19:07.331Z,99114.27
2023-01-30T15:22:12.016Z,99117.80
2023-01-30T15:25:36.356Z,99114.04
2023-01-30T15:28:48.852Z,99109.89
2023-01-30T15:31:37.779Z,99118.19
2023-01-30T15:34:47.171Z,99120.98
2023-01-30T15:37:41.440Z,99114.34
2023-01-30T15:40:28.532Z,99121.05
2023-01-30T15:43:00.114Z,99123.33
2023-01-30T15:46:31.289Z,99130.81
2023-01-30T15:56:50.031Z,99108.84
2023-01-30T15:59:41.585Z,99105.92
2023-01-30T16:02:50.710Z,99107.03
2023-01-30T16:05:26.943Z,99109.20
2023-01-30T16:07:56.964Z,99109.18
2023-01-30T16:10:36.905Z,99107.48
2023-01-30T16:13:05.853Z,99111.14
2023-01-30T16:15:57.707Z,99107.27
2023-01-30T16:18:34.333Z,99110.22
2023-01-30T16:21:29.942Z,99110.00
2023-01-30T17:18:31.601Z,99170.54
2023-01-30T17:20:21.545Z,99172.29
2023-01-30T17:23:17.007Z,99176.62
2023-01-30T17:25:54.751Z,99181.66
2023-01-30T17:28:42.002Z,99188.56
2023-01-30T17:31:12.753Z,99188.36
2023-01-30T17:33:41.266Z,99198.04
2023-01-30T17:36:25.347Z,99198.12
2023-01-30T17:38:52.769Z,99200.77
2023-01-30T17:41:29.740Z,99199.13
2023-01-30T17:43:58.335Z,99203.56
2023-01-30T17:46:39.767Z,99208.10
2023-01-30T17:49:13.705Z,99213.68
2023-01-30T17:51:44.940Z,99213.34
2023-01-30T17:54:19.228Z,99224.80
2023-01-30T17:57:01.089Z,99229.48
2023-01-30T17:59:32.727Z,99240.19
2023-01-30T18:02:00.923Z,99238.14
2023-01-30T18:04:37.330Z,99247.05
2023-01-30T18:07:13.561Z,99247.90
2023-01-30T18:09:44.966Z,99251.08
2023-01-30T18:12:15.747Z,99252.13
2023-01-30T18:14:44.521Z,99262.42
2023-01-30T18:17:13.425Z,99268.36
2023-01-30T18:19:40.935Z,99267.86
2023-01-30T18:22:11.431Z,99279.58
2023-01-30T18:24:43.267Z,99274.13
2023-01-30T18:27:12.872Z,99275.50
2023-01-30T18:29:40.025Z,99279.52
2023-01-30T18:32:08.862Z,99285.14
2023-01-30T18:34:40.335Z,99289.36
2023-01-30T18:37:09.585Z,99298.96
2023-01-30T18:39:37.858Z,99300.52
2023-01-30T18:42:07.705Z,99303.69
2023-01-30T18:44:36.276Z,99293.54
2023-01-30T18:47:05.348Z,99296.70
2023-01-30T18:49:38.825Z,99300.16
2023-01-30T18:52:07.252Z,99302.77
2023-01-30T18:54:37.247Z,99314.64
2023-01-30T18:57:05.061Z,99311.84
2023-01-30T18:59:32.480Z,99314.90
2023-01-30T19:02:19.969Z,99325.71
2023-01-30T19:04:48.524Z,99331.09
2023-01-30T19:07:16.871Z,99332.19
2023-01-30T19:09:45.754Z,99338.60
2023-01-30T19:12:34.646Z,99336.59
2023-01-30T19:15:07.843Z,99336.82
2023-01-30T19:17:35.514Z,99346.72
2023-01-30T19:20:10.795Z,99353.64
2023-01-30T19:22:43.617Z,99360.67
2023-01-30T19:25:13.650Z,99358.73
2023-01-30T19:27:43.374Z,99353.52
2023-01-30T19:30:12.702Z,99359.60
2023-01-30T19:32:41.185Z,99369.91
2023-01-30T19:35:09.535Z,99371.98
2023-01-30T19:37:39.914Z,99370.86
2023-01-30T19:43:10.398Z,99393.45
2023-01-30T19:45:42.521Z,99394.13
2023-01-30T19:48:14.707Z,99390.63
2023-01-30T19:50:43.698Z,99395.28
2023-01-30T19:53:12.528Z,99401.20
2023-01-30T19:55:41.971Z,99405.14
2023-01-30T19:58:10.822Z,99410.52
2023-01-30T20:01:03.134Z,99408.06
2023-01-30T20:03:36.387Z,99404.08
2023-01-30T20:06:20.025Z,99404.98
2023-01-30T20:08:49.784Z,99407.66
2023-01-30T20:11:19.221Z,99406.01
2023-01-30T20:13:48.727Z,99409.59
2023-01-30T20:16:31.286Z,99413.72
2023-01-30T20:19:04.861Z,99417.00
2023-01-30T20:21:35.724Z,99415.91
2023-01-30T20:24:18.860Z,99414.77
2023-01-30T20:26:48.389Z,99419.49
2023-01-30T20:29:21.758Z,99424.21
2023-01-30T20:31:55.242Z,99425.13
2023-01-30T20:34:22.625Z,99430.34
2023-01-30T20:36:49.980Z,99424.79
2023-01-30T20:39:22.308Z,99425.67
2023-01-30T20:41:49.802Z,99431.13
2023-01-30T20:44:18.146Z,99426.67
2023-01-30T20:46:49.875Z,99428.91
2023-01-30T20:49:19.469Z,99431.36
2023-01-30T20:51:50.093Z,99437.70
2023-01-30T20:54:24.341Z,99441.89
2023-01-30T20:57:12.313Z,99447.09
2023-01-30T20:59:43.287Z,99455.27
2023-01-30T21:02:16.115Z,99464.30
2023-01-30T21:04:46.241Z,99462.63
2023-01-30T21:07:13.457Z,99469.65
2023-01-30T21:09:41.947Z,99481.02
2023-01-30T21:12:13.142Z,99484.89
2023-01-30T21:14:44.102Z,99489.02
2023-01-30T21:17:11.568Z,99493.83
2023-01-30T21:19:41.973Z,99496.10
2023-01-30T21:22:10.750Z,99500.31
2023-01-30T21:24:42.083Z,99504.76
2023-01-30T21:27:09.431Z,99507.36
2023-01-30T21:29:56.563Z,99508.71
2023-01-30T21:32:23.663Z,99512.64
2023-01-30T21:34:50.803Z,99517.01
2023-01-30T21:37:37.851Z,99523.02
2023-01-30T21:40:24.096Z,99527.89
2023-01-30T21:43:09.961Z,99529.36
2023-01-30T21:45:39.088Z,99530.02
2023-01-30T21:48:06.580Z,99530.08
2023-01-30T21:50:38.375Z,99538.45
2023-01-30T21:53:11.470Z,99540.75
2023-01-30T21:55:38.946Z,99539.75
2023-01-30T21:58:06.518Z,99543.35
2023-01-30T22:00:36.807Z,99545.41
2023-01-30T22:03:04.033Z,99552.46
2023-01-30T22:05:36.568Z,99550.04
2023-01-30T22:08:05.234Z,99557.61
2023-01-30T22:10:32.500Z,99563.55
2023-01-30T22:13:02.025Z,99570.01
2023-01-30T22:15:33.335Z,99574.14
2023-01-30T22:18:00.442Z,99580.61
2023-01-30T22:20:28.692Z,99591.44
2023-01-30T22:22:55.822Z,99586.23
2023-01-30T22:25:23.674Z,99592.69
2023-01-30T22:27:50.844Z,99601.08
2023-01-30T22:30:18.108Z,99600.59
2023-01-30T22:32:45.565Z,99600.84
2023-01-30T22:35:13.821Z,99604.31
2023-01-30T22:37:41.093Z,99612.88
2023-01-30T22:40:09.855Z,99612.89
2023-01-30T22:42:37.665Z,99610.85
2023-01-30T22:45:06.230Z,99615.80
2023-01-30T22:47:34.000Z,99616.83
2023-01-30T22:50:14.340Z,99618.56
2023-01-30T22:52:42.530Z,99617.77
2023-01-30T22:55:10.824Z,99619.02
2023-01-30T22:57:39.585Z,99620.38
2023-01-30T23:00:20.487Z,99628.65
2023-01-30T23:02:48.393Z,99631.16
2023-01-30T23:05:18.375Z,99638.51
2023-01-30T23:07:46.371Z,99638.17
2023-01-30T23:10:17.045Z,99640.28
2023-01-30T23:13:02.846Z,99644.38
2023-01-30T23:15:34.797Z,99654.13
2023-01-30T23:18:20.533Z,99655.63
2023-01-30T23:20:47.857Z,99659.98
2023-01-30T23:23:15.038Z,99656.55
2023-01-30T23:25:42.536Z,99662.46
2023-01-30T23:28:11.401Z,99664.71
2023-01-30T23:30:40.235Z,99664.79
2023-01-30T23:33:08.837Z,99669.91
2023-01-30T23:35:37.769Z,99671.71
2023-01-30T23:38:21.596Z,99671.58
2023-01-30T23:40:49.890Z,99671.53
2023-01-30T23:43:20.874Z,99679.38
2023-01-30T23:45:53.683Z,99680.45
2023-01-30T23:48:20.947Z,99679.70
2023-01-30T23:50:48.051Z,99684.26
2023-01-30T23:53:15.814Z,99683.92
2023-01-30T23:55:52.703Z,99686.98
2023-01-30T23:58:23.557Z,99689.80
